Time;durP1;ratioP1;P1;durP2;ratioP2;P2;SDS_P1;SDS_P2;PMS_P1;PMS_P2;Temp;Humidity;BMP_temperature;BMP_pressure;BME280_temperature;BME280_humidity;BME280_pressure;Samples;Min_cycle;Max_cycle;Signal;HPM_P1;HPM_P2
2021/12/04 00:01:32;;;;;;;2.58;2.10;;;5.50;99.90;;;;;;4148951;28;20076;-63
2021/12/04 00:03:33;;;;;;;3.45;2.05;;;5.50;99.90;;;;;;4149904;28;20041;-63
2021/12/04 00:05:33;;;;;;;3.03;2.47;;;5.50;99.90;;;;;;4149109;28;20072;-65
2021/12/04 00:07:36;;;;;;;4.57;2.20;;;5.50;99.90;;;;;;4149219;28;20049;-63
2021/12/04 00:09:37;;;;;;;;;;;5.50;99.90;;;;;;4164816;28;20461;-63
2021/12/04 00:11:40;;;;;;;2.60;1.70;;;5.50;99.90;;;;;;4148909;28;19931;-64
2021/12/04 00:13:42;;;;;;;3.33;2.00;;;5.50;99.90;;;;;;4149852;28;20361;-63
2021/12/04 00:15:42;;;;;;;2.72;2.30;;;5.50;99.90;;;;;;4149026;28;20060;-64
2021/12/04 00:17:43;;;;;;;4.20;2.28;;;5.50;99.90;;;;;;4149358;28;20112;-63
2021/12/04 00:19:44;;;;;;;3.72;2.28;;;5.50;99.90;;;;;;4149385;28;20040;-63
2021/12/04 00:21:45;;;;;;;3.83;2.35;;;5.50;99.90;;;;;;4148846;28;20037;-63
2021/12/04 00:23:45;;;;;;;3.85;2.40;;;5.50;99.90;;;;;;4148503;28;20026;-63
2021/12/04 00:25:46;;;;;;;2.60;1.90;;;5.50;99.90;;;;;;4158468;28;20116;-63
2021/12/04 00:27:47;;;;;;;2.50;2.10;;;5.50;99.90;;;;;;4149118;28;20072;-63
2021/12/04 00:29:47;;;;;;;2.80;2.30;;;5.50;99.90;;;;;;4149773;28;20095;-63
2021/12/04 00:31:53;;;;;;;2.38;1.98;;;5.60;99.90;;;;;;4149110;28;20030;-63
2021/12/04 00:33:54;;;;;;;3.50;2.50;;;5.50;99.90;;;;;;4149465;28;20076;-64
2021/12/04 00:36:00;;;;;;;4.35;2.72;;;5.60;99.90;;;;;;4148465;28;20033;-63
2021/12/04 00:49:37;;;;;;;2.55;1.90;;;5.40;99.90;;;;;;4154526;28;20037;-63
2021/12/04 00:51:46;;;;;;;2.88;2.00;;;5.40;99.90;;;;;;4156147;28;20594;-64
2021/12/04 00:53:47;;;;;;;3.00;2.13;;;5.40;99.90;;;;;;4164354;28;20029;-63
2021/12/04 00:55:48;;;;;;;2.65;2.05;;;5.40;99.90;;;;;;4149709;28;20065;-64
2021/12/04 00:57:49;;;;;;;3.50;2.25;;;5.30;99.90;;;;;;4157572;28;20032;-64
2021/12/04 00:59:49;;;;;;;3.45;2.20;;;5.30;99.90;;;;;;4149027;28;20048;-63
2021/12/04 01:01:50;;;;;;;2.95;2.15;;;5.40;99.90;;;;;;4148599;28;20029;-63
2021/12/04 01:03:51;;;;;;;2.65;2.00;;;5.40;99.90;;;;;;4164139;28;20483;-63
2021/12/04 01:05:51;;;;;;;2.38;2.03;;;5.40;99.90;;;;;;4148236;28;20534;-64
2021/12/04 01:07:52;;;;;;;4.00;2.72;;;5.30;99.90;;;;;;4148864;28;20468;-64
2021/12/04 01:09:53;;;;;;;3.08;2.28;;;5.30;99.90;;;;;;4148786;28;20065;-63
2021/12/04 01:11:55;;;;;;;3.97;2.03;;;5.40;99.90;;;;;;4146962;28;20037;-63
2021/12/04 01:13:56;;;;;;;4.63;2.20;;;5.30;99.90;;;;;;4148661;28;20365;-64
2021/12/04 01:15:57;;;;;;;2.78;2.30;;;5.30;99.90;;;;;;4148133;28;20145;-63
2021/12/04 01:17:58;;;;;;;2.65;1.90;;;5.40;99.90;;;;;;4148705;28;20378;-63
2021/12/04 01:19:58;;;;;;;3.42;1.85;;;5.30;99.90;;;;;;4148579;28;20034;-63
2021/12/04 01:21:59;;;;;;;2.97;2.20;;;5.30;99.90;;;;;;4147846;28;20499;-63
2021/12/04 01:24:00;;;;;;;2.30;1.98;;;5.40;99.90;;;;;;4148847;28;20029;-63
2021/12/04 01:26:00;;;;;;;2.45;1.70;;;5.30;99.90;;;;;;4147543;28;20026;-64
2021/12/04 01:28:03;;;;;;;3.58;1.77;;;5.30;99.90;;;;;;4163695;28;20033;-64
2021/12/04 01:30:06;;;;;;;2.65;1.98;;;5.30;99.90;;;;;;4148768;28;20030;-63
2021/12/04 01:32:08;;;;;;;2.17;1.52;;;5.40;99.90;;;;;;4148201;28;20378;-63
2021/12/04 01:34:10;;;;;;;2.83;1.70;;;5.40;99.90;;;;;;4148993;28;20030;-63
2021/12/04 01:36:11;;;;;;;2.97;2.08;;;5.40;99.90;;;;;;4147936;28;20034;-62
2021/12/04 01:38:11;;;;;;;2.70;1.83;;;5.40;99.90;;;;;;4148659;28;20088;-61
2021/12/04 01:40:12;;;;;;;1.80;1.60;;;5.40;99.90;;;;;;4147731;28;20074;-63
2021/12/04 01:42:16;;;;;;;4.15;2.00;;;5.40;99.90;;;;;;4131443;28;20049;-62
2021/12/04 01:44:17;;;;;;;1.90;1.70;;;5.40;99.90;;;;;;4148811;28;20057;-62
2021/12/04 01:46:17;;;;;;;2.67;1.85;;;5.40;99.90;;;;;;4147664;28;20030;-62
2021/12/04 01:48:18;;;;;;;1.48;1.30;;;5.40;99.90;;;;;;4148621;28;20073;-62
2021/12/04 01:50:19;;;;;;;1.95;1.55;;;5.40;99.90;;;;;;4148039;28;20042;-62
2021/12/04 01:52:20;;;;;;;1.45;1.35;;;5.40;99.90;;;;;;4148910;28;20042;-62
2021/12/04 01:54:21;;;;;;;1.90;1.50;;;5.40;99.90;;;;;;4148190;28;20029;-61
2021/12/04 01:56:22;;;;;;;2.33;1.65;;;5.40;99.90;;;;;;4147400;28;20105;-62
2021/12/04 01:58:24;;;;;;;2.05;1.50;;;5.50;99.90;;;;;;4148518;28;20114;-63
2021/12/04 02:00:25;;;;;;;2.03;1.55;;;5.50;99.90;;;;;;4147994;28;20034;-62
2021/12/04 02:02:25;;;;;;;2.05;1.52;;;5.50;99.90;;;;;;4148613;28;20048;-63
2021/12/04 02:04:26;;;;;;;2.70;1.88;;;5.40;99.90;;;;;;4148288;28;20030;-63
2021/12/04 02:06:26;;;;;;;2.55;1.63;;;5.50;99.90;;;;;;4147439;28;20030;-63
2021/12/04 02:08:27;;;;;;;2.28;1.80;;;5.40;99.90;;;;;;4148198;28;20034;-63
2021/12/04 02:10:28;;;;;;;1.83;1.63;;;5.40;99.90;;;;;;4148073;28;20068;-63
2021/12/04 02:12:28;;;;;;;1.70;1.40;;;5.50;99.90;;;;;;4148456;28;20041;-63
2021/12/04 02:14:30;;;;;;;2.85;1.60;;;5.50;99.90;;;;;;4148353;28;20405;-62
2021/12/04 02:16:30;;;;;;;1.80;1.35;;;5.50;99.90;;;;;;4147409;28;20488;-63
2021/12/04 02:18:31;;;;;;;2.20;1.27;;;5.50;99.90;;;;;;4164623;28;20037;-63
2021/12/04 02:20:33;;;;;;;1.88;1.38;;;5.50;99.90;;;;;;4164133;28;20025;-62
2021/12/04 02:22:34;;;;;;;;;;;5.50;99.90;;;;;;4163935;28;20046;-63
2021/12/04 02:24:35;;;;;;;2.33;1.55;;;5.50;99.90;;;;;;4164709;28;19955;-63
2021/12/04 02:26:35;;;;;;;2.38;1.55;;;5.50;99.90;;;;;;4163761;28;20048;-63
2021/12/04 02:28:36;;;;;;;1.65;1.52;;;5.50;99.90;;;;;;4164851;28;20472;-63
2021/12/04 02:30:39;;;;;;;3.28;1.70;;;5.50;99.90;;;;;;4164197;28;20479;-63
2021/12/04 02:32:40;;;;;;;2.50;1.60;;;5.50;99.90;;;;;;4166681;28;20036;-63
2021/12/04 02:34:41;;;;;;;3.85;1.75;;;5.50;99.90;;;;;;4167417;28;20033;-62
2021/12/04 02:36:42;;;;;;;5.32;1.45;;;5.50;99.90;;;;;;4166839;28;20034;-63
2021/12/04 02:38:46;;;;;;;1.45;1.33;;;5.50;99.90;;;;;;4167522;28;20467;-62
2021/12/04 02:40:49;;;;;;;2.67;1.60;;;5.50;99.90;;;;;;4166793;28;20033;-62
2021/12/04 02:42:50;;;;;;;2.20;1.52;;;5.50;99.90;;;;;;4167317;28;20071;-62
2021/12/04 02:44:51;;;;;;;2.65;1.70;;;5.50;99.90;;;;;;4167115;28;20033;-62
2021/12/04 02:46:52;;;;;;;2.30;1.35;;;5.50;99.90;;;;;;4166578;28;20455;-63
2021/12/04 02:48:52;;;;;;;2.05;1.67;;;5.50;99.90;;;;;;4167761;28;20037;-63
2021/12/04 02:50:53;;;;;;;1.92;1.50;;;5.50;99.90;;;;;;4166432;28;20025;-63
2021/12/04 02:52:54;;;;;;;2.17;1.60;;;5.50;99.90;;;;;;4167531;28;20040;-63
2021/12/04 02:54:54;;;;;;;3.72;1.23;;;5.50;99.90;;;;;;4167333;28;20029;-63
2021/12/04 02:56:55;;;;;;;1.60;1.30;;;5.50;99.90;;;;;;4166359;28;20492;-63
2021/12/04 02:59:01;;;;;;;2.28;1.38;;;5.50;99.90;;;;;;4167365;28;20034;-63
2021/12/04 03:01:03;;;;;;;1.85;1.52;;;5.50;99.90;;;;;;4165280;28;20029;-63
2021/12/04 03:03:03;;;;;;;1.98;1.40;;;5.50;99.90;;;;;;4166951;28;20400;-63
2021/12/04 03:05:07;;;;;;;1.92;1.35;;;5.50;99.90;;;;;;4166721;28;20026;-64
2021/12/04 03:07:08;;;;;;;2.55;1.65;;;5.50;99.90;;;;;;4166818;28;20037;-63
2021/12/04 03:09:09;;;;;;;2.15;1.50;;;5.50;99.90;;;;;;4166869;28;20447;-63
2021/12/04 03:11:10;;;;;;;1.70;1.27;;;5.40;99.90;;;;;;4166180;28;20072;-62
2021/12/04 03:13:11;;;;;;;1.55;1.35;;;5.50;99.90;;;;;;4167100;28;20026;-62
2021/12/04 03:15:12;;;;;;;2.40;1.60;;;5.50;99.90;;;;;;4165757;28;20060;-62
2021/12/04 03:17:16;;;;;;;2.47;1.55;;;5.50;99.90;;;;;;4166943;28;20031;-62
2021/12/04 03:19:18;;;;;;;2.90;1.45;;;5.40;99.90;;;;;;4166972;28;20033;-63
2021/12/04 03:21:18;;;;;;;4.22;1.40;;;5.50;99.90;;;;;;4166338;28;20424;-62
2021/12/04 03:23:28;;;;;;;1.95;1.30;;;5.40;99.90;;;;;;4166813;28;20057;-62
2021/12/04 03:25:29;;;;;;;2.78;1.58;;;5.40;99.90;;;;;;4165904;28;20045;-64
2021/12/04 03:27:31;;;;;;;2.35;1.23;;;5.40;99.90;;;;;;4166438;28;20038;-63
2021/12/04 03:29:37;;;;;;;2.45;1.20;;;5.50;99.90;;;;;;4157256;28;20030;-63
2021/12/04 03:32:15;;;;;;;1.13;1.02;;;5.50;99.90;;;;;;4164803;28;20112;-63
2021/12/04 03:41:06;;;;;;;2.25;1.60;;;5.50;99.90;;;;;;4165892;28;20061;-63
2021/12/04 03:43:08;;;;;;;3.83;1.48;;;5.60;99.90;;;;;;4161293;28;20126;-63
2021/12/04 03:45:10;;;;;;;2.03;1.20;;;5.50;99.90;;;;;;4157492;28;20047;-65
2021/12/04 03:47:11;;;;;;;2.70;1.33;;;5.50;99.90;;;;;;4160112;28;20064;-63
2021/12/04 03:49:12;;;;;;;2.15;1.60;;;5.60;99.90;;;;;;4150180;28;20021;-63
2021/12/04 03:51:12;;;;;;;2.55;1.33;;;5.50;99.90;;;;;;4153981;28;20034;-62
2021/12/04 03:53:13;;;;;;;3.20;1.40;;;5.50;99.90;;;;;;4160294;28;20156;-62
2021/12/04 03:55:14;;;;;;;2.20;1.52;;;5.50;99.90;;;;;;4159734;28;20030;-63
2021/12/04 03:57:14;;;;;;;2.03;1.58;;;5.50;99.90;;;;;;4159950;28;20038;-62
2021/12/04 03:59:15;;;;;;;1.70;1.58;;;5.50;99.90;;;;;;4160092;28;20025;-62
2021/12/04 04:01:16;;;;;;;2.30;1.63;;;5.40;99.90;;;;;;4155372;28;20045;-62
2021/12/04 04:03:17;;;;;;;1.92;1.50;;;5.50;99.90;;;;;;4157483;28;20128;-62
2021/12/04 04:05:18;;;;;;;2.22;1.55;;;5.50;99.90;;;;;;4165387;28;20030;-62
2021/12/04 04:07:19;;;;;;;2.15;1.63;;;5.50;99.90;;;;;;4164079;28;20079;-62
2021/12/04 04:09:20;;;;;;;4.75;1.90;;;5.50;99.90;;;;;;4159716;28;20037;-62
2021/12/04 04:11:20;;;;;;;2.75;1.60;;;5.50;99.90;;;;;;4159207;28;20040;-62
2021/12/04 04:13:22;;;;;;;1.77;1.50;;;5.50;99.90;;;;;;4161656;28;20067;-62
2021/12/04 04:15:23;;;;;;;2.40;1.40;;;5.50;99.90;;;;;;4163209;28;20058;-63
2021/12/04 04:17:24;;;;;;;3.03;1.80;;;5.60;99.90;;;;;;4158631;28;20033;-63
2021/12/04 04:19:26;;;;;;;1.85;1.50;;;5.50;99.90;;;;;;4154800;28;20034;-63
2021/12/04 04:21:27;;;;;;;4.05;1.50;;;5.50;99.90;;;;;;4153888;28;20025;-63
2021/12/04 04:23:27;;;;;;;3.53;1.88;;;5.60;99.90;;;;;;4156197;28;20176;-63
2021/12/04 04:25:28;;;;;;;2.35;1.58;;;5.60;99.90;;;;;;4158201;28;20037;-63
2021/12/04 04:27:28;;;;;;;2.22;1.70;;;5.60;99.90;;;;;;4154690;28;20025;-63
2021/12/04 04:29:29;;;;;;;2.83;1.70;;;5.60;99.90;;;;;;4164839;28;20069;-63
2021/12/04 04:31:31;;;;;;;1.95;1.50;;;5.60;99.90;;;;;;4158381;28;20037;-63
2021/12/04 04:33:36;;;;;;;2.43;1.80;;;5.60;99.90;;;;;;4156014;28;20064;-63
2021/12/04 04:35:37;;;;;;;4.25;2.30;;;5.60;99.90;;;;;;4161459;28;20025;-63
2021/12/04 04:37:47;;;;;;;2.10;1.65;;;5.60;99.90;;;;;;4156619;28;20482;-63
2021/12/04 05:10:19;;;;;;;3.33;2.45;;;5.70;99.90;;;;;;4153656;28;20026;-63
2021/12/04 05:12:48;;;;;;;6.43;2.60;;;5.70;99.90;;;;;;4158784;28;20106;-63
2021/12/04 05:14:42;;;;;;;4.95;3.00;;;5.60;99.90;;;;;;4153443;28;20061;-64
2021/12/04 05:16:51;;;;;;;4.80;3.20;;;5.60;99.90;;;;;;4158045;28;20041;-63
2021/12/04 05:18:58;;;;;;;3.55;2.92;;;5.60;99.90;;;;;;4159311;28;20149;-63
2021/12/04 05:21:05;;;;;;;4.22;3.42;;;5.70;99.90;;;;;;4153894;28;20025;-64
2021/12/04 05:23:08;;;;;;;6.60;3.75;;;5.70;99.90;;;;;;4151448;28;20033;-63
2021/12/04 05:25:09;;;;;;;5.57;3.50;;;5.60;99.90;;;;;;4156867;28;20065;-68
2021/12/04 05:27:10;;;;;;;4.65;3.67;;;5.70;99.90;;;;;;4155666;28;20107;-64
2021/12/04 05:29:10;;;;;;;5.53;3.80;;;5.70;99.90;;;;;;4154191;28;20049;-64
2021/12/04 05:31:11;;;;;;;5.05;3.58;;;5.60;99.90;;;;;;4153889;28;20030;-63
2021/12/04 05:33:12;;;;;;;5.05;4.25;;;5.60;99.90;;;;;;4158999;28;20483;-63
2021/12/04 05:35:13;;;;;;;5.70;4.30;;;5.50;99.90;;;;;;4150397;28;20025;-63
2021/12/04 05:37:13;;;;;;;5.45;3.72;;;5.50;99.90;;;;;;4158814;28;20047;-62
2021/12/04 05:39:14;;;;;;;4.82;3.83;;;5.60;99.90;;;;;;4158724;28;20036;-63
2021/12/04 05:41:16;;;;;;;6.80;4.28;;;5.60;99.90;;;;;;4158109;28;20440;-62
2021/12/04 05:43:21;;;;;;;5.00;3.88;;;5.60;99.90;;;;;;4165987;28;20095;-63
2021/12/04 05:45:24;;;;;;;5.88;4.13;;;5.60;99.90;;;;;;4157018;28;20545;-63
2021/12/04 05:47:31;;;;;;;6.40;4.68;;;5.60;99.90;;;;;;4155895;28;20080;-64
2021/12/04 05:54:32;;;;;;;6.03;4.00;;;5.60;99.90;;;;;;4127409;28;20272;-63
2021/12/04 05:56:35;;;;;;;6.03;3.97;;;5.60;99.90;;;;;;4158173;28;20026;-63
2021/12/04 05:58:35;;;;;;;5.45;4.30;;;5.60;99.90;;;;;;4154783;28;20116;-63
2021/12/04 06:00:36;;;;;;;6.15;3.97;;;5.60;99.90;;;;;;4152638;28;20089;-63
2021/12/04 06:02:40;;;;;;;6.90;4.93;;;5.70;99.90;;;;;;4158286;28;20404;-63
2021/12/04 06:04:41;;;;;;;7.53;5.07;;;5.60;99.90;;;;;;4154673;28;20030;-63
2021/12/04 06:06:43;;;;;;;6.75;4.90;;;5.60;99.90;;;;;;4156956;28;20033;-63
2021/12/04 06:08:44;;;;;;;8.65;5.75;;;5.70;99.90;;;;;;4156084;28;20172;-63
2021/12/04 06:10:47;;;;;;;7.35;4.88;;;5.70;99.90;;;;;;4160909;28;20014;-64
2021/12/04 06:12:47;;;;;;;5.53;4.15;;;5.70;99.90;;;;;;4163548;28;20033;-62
2021/12/04 06:14:49;;;;;;;5.65;4.57;;;5.70;99.90;;;;;;4156745;28;20054;-63
2021/12/04 06:16:49;;;;;;;5.15;4.07;;;5.70;99.90;;;;;;4155032;28;20061;-63
2021/12/04 06:18:53;;;;;;;6.15;4.07;;;5.60;99.90;;;;;;4152744;28;20041;-64
2021/12/04 06:23:13;;;;;;;6.28;4.80;;;5.60;99.90;;;;;;4156451;28;20046;-63
2021/12/04 06:25:24;;;;;;;5.88;4.05;;;5.60;99.90;;;;;;4164992;28;20167;-63
2021/12/04 06:27:25;;;;;;;6.93;4.47;;;5.60;99.90;;;;;;4156781;28;20067;-62
2021/12/04 06:29:25;;;;;;;5.07;3.92;;;5.60;99.90;;;;;;4161234;28;20033;-63
2021/12/04 06:31:27;;;;;;;4.55;3.78;;;5.60;99.90;;;;;;4153758;28;20361;-63
2021/12/04 06:33:28;;;;;;;6.63;4.40;;;5.60;99.90;;;;;;4161283;28;20038;-63
2021/12/04 06:35:31;;;;;;;6.25;4.55;;;5.60;99.90;;;;;;4159730;28;20042;-64
2021/12/04 06:37:32;;;;;;;4.82;3.92;;;5.60;99.90;;;;;;4160493;28;20052;-63
2021/12/04 06:39:32;;;;;;;6.03;4.20;;;5.60;99.90;;;;;;4159688;28;20037;-63
2021/12/04 06:41:33;;;;;;;6.22;4.10;;;5.60;99.90;;;;;;4164329;28;20025;-64
2021/12/04 06:43:35;;;;;;;6.15;4.28;;;5.60;99.90;;;;;;4175534;28;20068;-63
2021/12/04 06:45:39;;;;;;;5.68;4.15;;;5.60;99.90;;;;;;4152697;28;20014;-63
2021/12/04 06:47:46;;;;;;;5.13;3.75;;;5.60;99.90;;;;;;4159290;28;20093;-64
2021/12/04 06:49:47;;;;;;;4.95;3.95;;;5.60;99.90;;;;;;4159996;28;20022;-63
2021/12/04 06:51:52;;;;;;;6.55;4.20;;;5.60;99.90;;;;;;4160241;28;20040;-64
2021/12/04 06:53:59;;;;;;;6.13;3.95;;;5.50;99.90;;;;;;4160748;28;20030;-63
2021/12/04 06:56:02;;;;;;;4.97;3.58;;;5.50;99.90;;;;;;4160457;28;20033;-63
2021/12/04 06:58:03;;;;;;;5.20;3.83;;;5.50;99.90;;;;;;4155446;28;20025;-64
2021/12/04 07:00:09;;;;;;;5.25;3.80;;;5.50;99.90;;;;;;4161839;28;20060;-63
2021/12/04 07:02:10;;;;;;;5.07;3.60;;;5.60;99.90;;;;;;4156304;28;20048;-64
2021/12/04 07:04:11;;;;;;;6.60;4.28;;;5.60;99.90;;;;;;4156298;28;20038;-64
2021/12/04 07:06:12;;;;;;;6.53;3.67;;;5.60;99.90;;;;;;4159540;28;20038;-63
2021/12/04 07:08:13;;;;;;;5.78;3.70;;;5.50;99.90;;;;;;4174742;28;20478;-63
2021/12/04 07:10:14;;;;;;;5.10;3.75;;;5.50;99.90;;;;;;4156766;28;20522;-63
2021/12/04 07:12:15;;;;;;;6.22;4.28;;;5.50;99.90;;;;;;4161328;28;20060;-63
2021/12/04 07:14:15;;;;;;;5.03;4.13;;;5.50;99.90;;;;;;4159147;28;20103;-64
2021/12/04 07:16:18;;;;;;;5.05;4.10;;;5.50;99.90;;;;;;4153647;28;20083;-64
2021/12/04 07:18:19;;;;;;;;;;;5.50;99.90;;;;;;4163018;28;20033;-64
2021/12/04 07:20:19;;;;;;;4.63;3.58;;;5.60;99.90;;;;;;4156567;28;19916;-64
2021/12/04 07:22:20;;;;;;;3.97;3.28;;;5.60;99.90;;;;;;4158066;28;20046;-63
2021/12/04 07:24:21;;;;;;;4.30;3.42;;;5.60;99.90;;;;;;4164905;28;20037;-64
2021/12/04 07:26:22;;;;;;;4.07;3.30;;;5.60;99.90;;;;;;4157144;28;20060;-64
2021/12/04 07:28:23;;;;;;;5.25;3.75;;;5.50;99.90;;;;;;4171385;28;20029;-63
2021/12/04 07:30:25;;;;;;;4.03;3.20;;;5.60;99.90;;;;;;4169580;28;20048;-67
2021/12/04 07:32:26;;;;;;;6.82;3.70;;;5.60;99.90;;;;;;4159862;28;20389;-64
2021/12/04 07:34:27;;;;;;;5.47;3.65;;;5.60;99.90;;;;;;4164062;28;20560;-70
2021/12/04 07:36:27;;;;;;;3.97;2.83;;;5.60;99.90;;;;;;4152657;28;20034;-65
2021/12/04 07:38:28;;;;;;;3.42;2.88;;;5.60;99.90;;;;;;4162065;28;20033;-64
2021/12/04 07:40:29;;;;;;;4.43;3.63;;;5.60;99.90;;;;;;4154510;28;20071;-64
2021/12/04 07:42:30;;;;;;;5.78;3.80;;;5.60;99.90;;;;;;4151113;28;20064;-65
2021/12/04 07:44:31;;;;;;;5.65;3.47;;;5.60;99.90;;;;;;4160399;28;20388;-65
2021/12/04 07:46:31;;;;;;;4.03;3.33;;;5.60;99.90;;;;;;4156902;28;20034;-64
2021/12/04 07:48:32;;;;;;;5.03;3.50;;;5.60;99.90;;;;;;4155051;28;20029;-64
2021/12/04 07:50:33;;;;;;;4.60;3.08;;;5.70;99.90;;;;;;4159182;28;20026;-64
2021/12/04 07:52:35;;;;;;;7.10;3.90;;;5.70;99.90;;;;;;4160156;28;20112;-65
2021/12/04 07:54:36;;;;;;;5.13;3.05;;;5.70;99.90;;;;;;4164622;28;20109;-65
2021/12/04 07:56:37;;;;;;;4.22;2.97;;;5.60;99.90;;;;;;4156139;28;20084;-64
2021/12/04 07:58:38;;;;;;;4.85;3.15;;;5.70;99.90;;;;;;4158882;28;20033;-64
2021/12/04 08:00:39;;;;;;;5.43;3.30;;;5.70;99.90;;;;;;4154210;28;20034;-65
2021/12/04 08:02:41;;;;;;;4.40;3.00;;;5.70;99.90;;;;;;4155315;28;20045;-65
2021/12/04 08:04:42;;;;;;;5.10;3.27;;;5.70;99.90;;;;;;4158104;28;20029;-65
2021/12/04 08:06:42;;;;;;;4.38;3.00;;;5.70;99.90;;;;;;4155228;28;20377;-64
2021/12/04 08:08:43;;;;;;;5.30;3.58;;;5.70;99.90;;;;;;4158597;28;20472;-64
2021/12/04 08:10:44;;;;;;;4.57;3.20;;;5.70;99.90;;;;;;4155291;28;20030;-64
2021/12/04 08:12:45;;;;;;;4.43;3.15;;;5.70;99.90;;;;;;4159771;28;20032;-65
2021/12/04 08:14:45;;;;;;;4.97;3.20;;;5.80;99.90;;;;;;4154579;28;20491;-65
2021/12/04 08:16:49;;;;;;;4.88;3.53;;;5.80;99.90;;;;;;4158489;28;20065;-64
2021/12/04 08:18:51;;;;;;;5.38;3.33;;;5.70;99.90;;;;;;4152831;28;20045;-64
2021/12/04 08:20:51;;;;;;;4.67;3.40;;;5.70;99.90;;;;;;4151195;28;20034;-65
2021/12/04 08:22:52;;;;;;;6.22;4.00;;;5.70;99.90;;;;;;4159517;28;20502;-65
2021/12/04 08:24:54;;;;;;;5.63;3.00;;;5.70;99.90;;;;;;4151904;28;20463;-64
2021/12/04 08:26:55;;;;;;;5.45;3.53;;;5.70;99.90;;;;;;4159698;28;20057;-64
2021/12/04 08:28:55;;;;;;;5.32;3.58;;;5.70;99.90;;;;;;4156087;28;20033;-64
2021/12/04 08:30:56;;;;;;;4.20;3.15;;;5.70;99.90;;;;;;4158073;28;20041;-65
2021/12/04 08:32:57;;;;;;;6.85;3.72;;;5.70;99.90;;;;;;4155334;28;20044;-64
2021/12/04 08:34:58;;;;;;;5.97;3.75;;;5.70;99.90;;;;;;4158902;28;20120;-65
2021/12/04 08:36:58;;;;;;;5.00;3.83;;;5.70;99.90;;;;;;4154898;28;20037;-64
2021/12/04 08:39:00;;;;;;;5.45;3.53;;;5.80;99.90;;;;;;4154482;28;20238;-64
2021/12/04 08:41:03;;;;;;;5.97;4.10;;;5.80;99.90;;;;;;4154499;28;20037;-65
2021/12/04 08:43:05;;;;;;;8.95;4.63;;;5.80;99.90;;;;;;4163561;28;20043;-64
2021/12/04 08:45:06;;;;;;;4.83;3.73;;;5.70;99.90;;;;;;4158983;28;20468;-67
2021/12/04 08:47:07;;;;;;;6.45;3.53;;;5.70;99.90;;;;;;4158567;28;20033;-62
2021/12/04 08:49:08;;;;;;;6.45;4.30;;;5.70;99.90;;;;;;4153593;28;20464;-62
2021/12/04 08:51:08;;;;;;;5.03;3.33;;;5.70;99.90;;;;;;4158912;28;20116;-63
2021/12/04 08:53:09;;;;;;;5.53;3.60;;;5.70;99.90;;;;;;4154430;28;20484;-63
2021/12/04 08:55:11;;;;;;;6.60;3.80;;;5.70;99.90;;;;;;4158886;28;20033;-63
2021/12/04 08:57:13;;;;;;;7.03;3.87;;;5.70;99.90;;;;;;4151025;28;20053;-62
2021/12/04 08:59:14;;;;;;;4.73;3.40;;;5.70;99.90;;;;;;4156161;28;20440;-62
2021/12/04 09:01:24;;;;;;;4.47;3.85;;;5.70;99.90;;;;;;4158206;28;20355;-62
2021/12/04 09:03:32;;;;;;;5.38;3.90;;;5.70;99.90;;;;;;4174805;28;20491;-62
2021/12/04 09:05:36;;;;;;;8.25;4.82;;;5.80;99.90;;;;;;4148862;28;20473;-62
2021/12/04 09:07:37;;;;;;;7.45;4.30;;;5.70;99.90;;;;;;4158491;28;20112;-62
2021/12/04 09:09:37;;;;;;;8.27;4.95;;;5.70;99.90;;;;;;4150182;28;20064;-63
2021/12/04 09:11:43;;;;;;;8.27;4.95;;;5.70;99.90;;;;;;4156945;28;20033;-62
2021/12/04 09:13:44;;;;;;;8.10;4.78;;;5.70;99.90;;;;;;4158972;28;20040;-62
2021/12/04 09:15:46;;;;;;;8.77;4.82;;;5.60;99.90;;;;;;4150969;28;20125;-63
2021/12/04 09:17:47;;;;;;;6.63;4.57;;;5.70;99.90;;;;;;4158628;28;20125;-63
2021/12/04 09:19:49;;;;;;;4.90;3.85;;;5.70;99.90;;;;;;4158798;28;20400;-62
2021/12/04 09:21:52;;;;;;;5.03;4.03;;;5.70;99.90;;;;;;4157948;28;20045;-62
2021/12/04 09:24:02;;;;;;;6.15;4.28;;;5.60;99.90;;;;;;4151068;28;20041;-62
2021/12/04 09:26:04;;;;;;;5.55;3.70;;;5.70;99.90;;;;;;4151207;28;20060;-63
2021/12/04 10:00:46;;;;;;;4.82;3.85;;;6.00;99.90;;;;;;4156648;28;20396;-63
2021/12/04 10:03:07;;;;;;;6.20;4.82;;;6.10;99.90;;;;;;4159615;28;20025;-62
2021/12/04 10:05:41;;;;;;;6.00;4.43;;;6.10;99.90;;;;;;4156775;28;20396;-64
2021/12/04 10:15:23;;;;;;;9.02;6.03;;;6.10;99.90;;;;;;4159943;28;20046;-63
2021/12/04 10:33:37;;;;;;;6.88;5.18;;;6.20;99.90;;;;;;4161140;28;20373;-63
2021/12/04 10:35:38;;;;;;;9.18;5.50;;;6.30;99.90;;;;;;4160231;28;20485;-63
2021/12/04 10:37:48;;;;;;;8.35;5.53;;;6.30;99.90;;;;;;4159155;28;20037;-63
2021/12/04 10:39:50;;;;;;;7.75;5.25;;;6.30;99.90;;;;;;4160919;28;20033;-63
2021/12/04 10:41:55;;;;;;;8.20;5.78;;;6.40;99.90;;;;;;4155231;28;20048;-63
2021/12/04 10:44:21;;;;;;;7.20;5.10;;;6.40;99.90;;;;;;4162521;28;20586;-63
2021/12/04 10:46:22;;;;;;;8.02;5.82;;;6.40;99.90;;;;;;4157710;28;20116;-63
2021/12/04 10:48:27;;;;;;;7.78;5.25;;;6.40;99.90;;;;;;4155524;28;20026;-63
2021/12/04 10:53:18;;;;;;;6.85;5.38;;;6.30;99.90;;;;;;4160516;28;20452;-63
2021/12/04 10:57:39;;;;;;;6.68;5.38;;;6.40;99.90;;;;;;4159572;28;20116;-63
2021/12/04 10:59:52;;;;;;;6.88;5.43;;;6.40;99.90;;;;;;4161091;28;20388;-63
2021/12/04 11:04:26;;;;;;;7.97;6.00;;;6.40;99.90;;;;;;4158296;28;20388;-63
2021/12/04 11:38:37;;;;;;;11.02;7.47;;;6.30;99.90;;;;;;4157829;28;20082;-63
2021/12/04 11:40:53;;;;;;;10.30;7.40;;;6.30;99.90;;;;;;4159573;28;20029;-63
2021/12/04 11:43:02;;;;;;;9.75;7.38;;;6.30;99.90;;;;;;4155713;28;20377;-63
2021/12/04 11:45:30;;;;;;;9.20;6.75;;;6.30;99.90;;;;;;4154591;28;20326;-63
2021/12/04 11:47:43;;;;;;;9.20;6.85;;;6.30;99.90;;;;;;4156678;28;20128;-63
2021/12/04 11:49:44;;;;;;;9.88;7.28;;;6.30;99.90;;;;;;4162022;28;20041;-63
2021/12/04 11:51:57;;;;;;;8.18;6.00;;;6.40;99.90;;;;;;4151983;28;20030;-63
2021/12/04 11:53:58;;;;;;;10.52;6.80;;;6.40;99.90;;;;;;4166340;28;20072;-63
2021/12/04 11:56:00;;;;;;;9.05;5.88;;;6.40;99.90;;;;;;4158787;28;20480;-63
2021/12/04 11:58:01;;;;;;;9.03;6.60;;;6.40;99.90;;;;;;4159736;28;20178;-63
2021/12/04 12:00:25;;;;;;;6.95;5.28;;;6.40;99.90;;;;;;4158921;28;20327;-63
2021/12/04 12:02:26;;;;;;;6.75;5.18;;;6.40;99.90;;;;;;4153782;28;20030;-63
2021/12/04 12:04:40;;;;;;;8.02;5.82;;;6.50;99.90;;;;;;4159823;28;20088;-63
2021/12/04 12:06:45;;;;;;;6.88;5.30;;;6.40;99.90;;;;;;4151673;28;20046;-63
2021/12/04 12:08:46;;;;;;;6.22;4.60;;;6.50;99.90;;;;;;4157386;28;20057;-63
2021/12/04 12:10:49;;;;;;;7.28;5.30;;;6.50;99.90;;;;;;4154187;28;20038;-63
2021/12/04 12:12:52;;;;;;;8.27;5.43;;;6.50;99.90;;;;;;4161329;28;20040;-63
2021/12/04 12:14:56;;;;;;;6.05;4.32;;;6.50;99.90;;;;;;4158965;28;20502;-63
2021/12/04 12:16:56;;;;;;;5.75;4.43;;;6.60;99.90;;;;;;4155620;28;20037;-63
2021/12/04 12:18:59;;;;;;;6.22;4.80;;;6.60;99.90;;;;;;4161257;28;20037;-63
2021/12/04 12:21:11;;;;;;;5.22;4.25;;;6.60;99.90;;;;;;4159032;28;20041;-63
2021/12/04 12:23:14;;;;;;;6.47;5.03;;;6.70;99.90;;;;;;4157384;28;20030;-63
2021/12/04 12:27:56;;;;;;;6.03;4.88;;;6.70;99.90;;;;;;4152192;28;20121;-63
2021/12/04 12:33:32;;;;;;;6.25;4.10;;;6.70;99.90;;;;;;4152677;28;20365;-63
2021/12/04 12:38:00;;;;;;;5.55;3.83;;;6.70;99.90;;;;;;4154408;28;20034;-63
2021/12/04 12:40:06;;;;;;;4.97;3.78;;;6.70;99.90;;;;;;4159116;28;20041;-63
2021/12/04 12:42:07;;;;;;;4.57;3.78;;;6.70;99.90;;;;;;4157177;28;20140;-63
2021/12/04 12:44:29;;;;;;;5.22;3.72;;;6.70;99.90;;;;;;4163461;28;20041;-64
2021/12/04 12:46:44;;;;;;;4.25;3.30;;;6.70;99.90;;;;;;4158170;28;20090;-63
2021/12/04 12:48:52;;;;;;;9.10;4.57;;;6.80;99.90;;;;;;4153565;28;20022;-63
2021/12/04 12:50:54;;;;;;;6.63;4.07;;;6.80;99.90;;;;;;4156838;28;20372;-64
2021/12/04 12:53:10;;;;;;;4.38;3.67;;;6.80;99.90;;;;;;4154454;28;20040;-63
2021/12/04 12:55:11;;;;;;;5.75;4.20;;;6.80;99.90;;;;;;4156983;28;20043;-67
2021/12/04 12:57:20;;;;;;;4.57;3.25;;;6.70;99.90;;;;;;4154186;28;20030;-64
2021/12/04 12:59:36;;;;;;;4.43;3.58;;;6.80;99.90;;;;;;4163608;28;20033;-64
2021/12/04 13:13:44;;;;;;;5.78;4.57;;;6.80;99.90;;;;;;4152527;28;20026;-62
2021/12/04 13:15:45;;;;;;;8.35;5.22;;;6.80;99.90;;;;;;4151941;28;20049;-62
2021/12/04 13:17:46;;;;;;;11.77;6.03;;;6.80;99.90;;;;;;4159248;28;20503;-62
2021/12/04 13:19:51;;;;;;;9.45;6.00;;;6.80;99.90;;;;;;4153971;28;20026;-62
2021/12/04 13:21:55;;;;;;;8.70;5.57;;;6.80;99.90;;;;;;4158100;28;20362;-62
2021/12/04 13:23:57;;;;;;;5.50;4.60;;;6.80;99.90;;;;;;4158132;28;20044;-62
2021/12/04 13:26:07;;;;;;;5.60;4.28;;;6.80;99.90;;;;;;4157789;28;20038;-62
2021/12/04 13:30:18;;;;;;;6.28;4.43;;;6.80;99.90;;;;;;4157945;28;20081;-62
2021/12/04 13:32:32;;;;;;;7.10;4.78;;;6.80;99.90;;;;;;4158221;28;20049;-62
2021/12/04 13:34:35;;;;;;;6.53;4.93;;;6.80;99.90;;;;;;4167820;28;20423;-62
2021/12/04 13:36:36;;;;;;;;;;;6.80;99.90;;;;;;4160020;28;20040;-62
2021/12/04 13:38:36;;;;;;;6.13;4.10;;;6.80;99.90;;;;;;4151798;28;20279;-62
2021/12/04 13:40:38;;;;;;;7.03;4.95;;;6.80;99.90;;;;;;4159382;28;20033;-62
2021/12/04 13:42:40;;;;;;;8.35;5.40;;;6.80;99.90;;;;;;4152591;28;20037;-62
2021/12/04 13:44:40;;;;;;;7.68;5.43;;;6.80;99.90;;;;;;4152248;28;20042;-62